FIN2EL EDDH-EDLW
Flight info
| Callsign | FIN2EL |
|---|---|
| Flight time | 0h 41m |
| Altitude | 20000 |
| Route | HABFU1G/33 HABFU Y348 DOMEG DOMEG2A |
| Aircraft | A320/M-SDE3FGHIRWY/LB1 |
Departure
| Time | 2026-05-06 17:28 |
|---|---|
| Airport | Hamburg Helmut Schmidt Airport (EDDH) |
Arrival
| Time | 2026-05-06 18:10 |
|---|---|
| Airport | Dortmund Airport (EDLW) |
| Time | Latitude | Longitude | Altitude | Speed | Heading |
|---|---|---|---|---|---|
| 2026-05-06 16:46 | 53.63007 | 10.00359 | 49 ft | 0 kts | 122° |
| 2026-05-06 17:18 | 53.63008 | 10.00356 | 50 ft | 1 kts | 122° |
| 2026-05-06 17:19 | 53.63012 | 10.00345 | 47 ft | 1 kts | 122° |
| 2026-05-06 17:19 | 53.63017 | 10.00331 | 48 ft | 2 kts | 122° |
| 2026-05-06 17:19 | 53.63029 | 10.00300 | 48 ft | 3 kts | 122° |
| 2026-05-06 17:19 | 53.63041 | 10.00269 | 49 ft | 3 kts | 122° |
| 2026-05-06 17:20 | 53.63052 | 10.00237 | 46 ft | 3 kts | 123° |
| 2026-05-06 17:20 | 53.63065 | 10.00207 | 50 ft | 3 kts | 140° |
| 2026-05-06 17:20 | 53.63084 | 10.00190 | 50 ft | 3 kts | 184° |
| 2026-05-06 17:20 | 53.63091 | 10.00191 | 50 ft | 0 kts | 206° |
| 2026-05-06 17:22 | 53.63090 | 10.00190 | 50 ft | 0 kts | 206° |
| 2026-05-06 17:22 | 53.63085 | 10.00186 | 49 ft | 3 kts | 206° |
| 2026-05-06 17:22 | 53.63040 | 10.00143 | 50 ft | 13 kts | 210° |
| 2026-05-06 17:23 | 53.62957 | 10.00055 | 50 ft | 13 kts | 216° |
| 2026-05-06 17:23 | 53.62899 | 9.99917 | 50 ft | 15 kts | 244° |
| 2026-05-06 17:23 | 53.62895 | 9.99903 | 50 ft | 0 kts | 244° |
| 2026-05-06 17:24 | 53.62888 | 9.99879 | 48 ft | 4 kts | 242° |
| 2026-05-06 17:24 | 53.62886 | 9.99873 | 50 ft | 0 kts | 242° |
| 2026-05-06 17:25 | 53.62895 | 9.99900 | 46 ft | 0 kts | 242° |
| 2026-05-06 17:26 | 53.62876 | 9.99841 | 47 ft | 21 kts | 241° |
| 2026-05-06 17:26 | 53.62876 | 9.99747 | 47 ft | 10 kts | 312° |
| 2026-05-06 17:27 | 53.62969 | 9.99657 | 49 ft | 34 kts | 332° |
| 2026-05-06 17:27 | 53.63387 | 9.99297 | 48 ft | 99 kts | 332° |
| 2026-05-06 17:27 | 53.64165 | 9.98627 | 51 ft | 149 kts | 334° |
| 2026-05-06 17:27 | 53.65185 | 9.97753 | 222 ft | 176 kts | 336° |
| 2026-05-06 17:28 | 53.66358 | 9.96762 | 539 ft | 197 kts | 337° |
| 2026-05-06 17:28 | 53.67611 | 9.95821 | 1371 ft | 195 kts | 342° |
| 2026-05-06 17:28 | 53.68885 | 9.94993 | 2245 ft | 206 kts | 344° |
| 2026-05-06 17:28 | 53.70209 | 9.93820 | 3054 ft | 223 kts | 328° |
| 2026-05-06 17:29 | 53.71208 | 9.91810 | 4002 ft | 230 kts | 296° |
| 2026-05-06 17:29 | 53.71532 | 9.89120 | 4349 ft | 239 kts | 266° |
| 2026-05-06 17:29 | 53.71145 | 9.86359 | 4485 ft | 255 kts | 252° |
| 2026-05-06 17:29 | 53.70488 | 9.83386 | 4742 ft | 281 kts | 249° |
| 2026-05-06 17:30 | 53.69785 | 9.80353 | 5703 ft | 279 kts | 249° |
| 2026-05-06 17:30 | 53.69100 | 9.77267 | 6595 ft | 284 kts | 251° |
| 2026-05-06 17:30 | 53.68444 | 9.74135 | 7485 ft | 284 kts | 252° |
| 2026-05-06 17:30 | 53.67812 | 9.70987 | 8391 ft | 286 kts | 253° |
| 2026-05-06 17:31 | 53.67181 | 9.67778 | 9068 ft | 292 kts | 253° |
| 2026-05-06 17:31 | 53.66542 | 9.64529 | 9188 ft | 291 kts | 253° |
| 2026-05-06 17:31 | 53.65901 | 9.61279 | 9312 ft | 291 kts | 252° |
| 2026-05-06 17:31 | 53.64933 | 9.58291 | 9422 ft | 295 kts | 230° |
| 2026-05-06 17:32 | 53.63308 | 9.56137 | 9551 ft | 297 kts | 209° |
| 2026-05-06 17:32 | 53.61499 | 9.54477 | 9675 ft | 300 kts | 209° |
| 2026-05-06 17:32 | 53.59660 | 9.52803 | 10317 ft | 299 kts | 207° |
| 2026-05-06 17:32 | 53.57773 | 9.51089 | 10719 ft | 319 kts | 207° |
| 2026-05-06 17:33 | 53.55779 | 9.49275 | 11088 ft | 340 kts | 207° |
| 2026-05-06 17:33 | 53.53684 | 9.47364 | 11940 ft | 343 kts | 208° |
| 2026-05-06 17:33 | 53.51588 | 9.45452 | 12962 ft | 344 kts | 208° |
| 2026-05-06 17:33 | 53.49471 | 9.43520 | 13861 ft | 348 kts | 208° |
| 2026-05-06 17:34 | 53.47346 | 9.41583 | 14813 ft | 347 kts | 208° |
| 2026-05-06 17:34 | 53.45221 | 9.39649 | 15738 ft | 348 kts | 208° |
| 2026-05-06 17:34 | 53.43071 | 9.37694 | 16467 ft | 355 kts | 208° |
| 2026-05-06 17:34 | 53.40888 | 9.35711 | 17292 ft | 358 kts | 208° |
| 2026-05-06 17:35 | 53.38684 | 9.33712 | 18140 ft | 361 kts | 208° |
| 2026-05-06 17:35 | 53.36462 | 9.31702 | 18525 ft | 367 kts | 210° |
| 2026-05-06 17:35 | 53.34194 | 9.29695 | 19043 ft | 371 kts | 206° |
| 2026-05-06 17:36 | 53.29243 | 9.26985 | 19584 ft | 377 kts | 192° |
| 2026-05-06 17:36 | 53.26694 | 9.26255 | 19681 ft | 378 kts | 191° |
| 2026-05-06 17:36 | 53.24098 | 9.25505 | 19784 ft | 378 kts | 192° |
| 2026-05-06 17:36 | 53.21503 | 9.24745 | 19871 ft | 379 kts | 192° |
| 2026-05-06 17:37 | 53.18905 | 9.23977 | 19877 ft | 379 kts | 192° |
| 2026-05-06 17:37 | 53.16310 | 9.23207 | 19874 ft | 378 kts | 192° |
| 2026-05-06 17:37 | 53.13715 | 9.22437 | 19874 ft | 379 kts | 192° |
| 2026-05-06 17:37 | 53.11129 | 9.21670 | 19874 ft | 379 kts | 192° |
| 2026-05-06 17:38 | 53.08527 | 9.20899 | 19876 ft | 379 kts | 192° |
| 2026-05-06 17:38 | 53.05936 | 9.20131 | 19874 ft | 378 kts | 192° |
| 2026-05-06 17:38 | 53.03343 | 9.19365 | 19874 ft | 378 kts | 192° |
| 2026-05-06 17:38 | 53.01394 | 9.18789 | 19875 ft | 378 kts | 192° |
| 2026-05-06 17:39 | 52.99005 | 9.18084 | 19872 ft | 378 kts | 192° |
| 2026-05-06 17:39 | 52.96432 | 9.17204 | 19871 ft | 377 kts | 197° |
| 2026-05-06 17:39 | 52.93948 | 9.15812 | 19871 ft | 376 kts | 204° |
| 2026-05-06 17:39 | 52.91599 | 9.13916 | 19872 ft | 375 kts | 210° |
| 2026-05-06 17:40 | 52.89299 | 9.11866 | 19846 ft | 379 kts | 209° |
| 2026-05-06 17:40 | 52.86957 | 9.09793 | 19573 ft | 381 kts | 209° |
| 2026-05-06 17:40 | 52.84628 | 9.07744 | 19179 ft | 378 kts | 209° |
| 2026-05-06 17:40 | 52.82315 | 9.05717 | 18745 ft | 373 kts | 209° |
| 2026-05-06 17:41 | 52.80037 | 9.03725 | 18317 ft | 370 kts | 209° |
| 2026-05-06 17:41 | 52.77761 | 9.01736 | 17850 ft | 370 kts | 209° |
| 2026-05-06 17:41 | 52.75497 | 8.99761 | 17366 ft | 366 kts | 209° |
| 2026-05-06 17:41 | 52.73255 | 8.97806 | 16884 ft | 364 kts | 209° |
| 2026-05-06 17:42 | 52.71016 | 8.95857 | 16413 ft | 363 kts | 209° |
| 2026-05-06 17:42 | 52.68823 | 8.93950 | 15959 ft | 359 kts | 209° |
| 2026-05-06 17:42 | 52.66623 | 8.92040 | 15502 ft | 356 kts | 208° |
| 2026-05-06 17:42 | 52.64441 | 8.90146 | 15054 ft | 353 kts | 208° |
| 2026-05-06 17:43 | 52.62273 | 8.88266 | 14611 ft | 352 kts | 208° |
| 2026-05-06 17:43 | 52.60115 | 8.86397 | 14180 ft | 350 kts | 208° |
| 2026-05-06 17:43 | 52.57971 | 8.84545 | 13746 ft | 346 kts | 208° |
| 2026-05-06 17:43 | 52.55850 | 8.82712 | 13271 ft | 343 kts | 208° |
| 2026-05-06 17:44 | 52.53744 | 8.80893 | 12798 ft | 340 kts | 208° |
| 2026-05-06 17:44 | 52.51641 | 8.79079 | 12329 ft | 343 kts | 208° |
| 2026-05-06 17:44 | 52.49535 | 8.77267 | 11862 ft | 340 kts | 208° |
| 2026-05-06 17:44 | 52.47452 | 8.75476 | 11395 ft | 336 kts | 208° |
| 2026-05-06 17:45 | 52.45386 | 8.73702 | 10953 ft | 334 kts | 208° |
| 2026-05-06 17:45 | 52.43331 | 8.71939 | 10492 ft | 329 kts | 208° |
| 2026-05-06 17:45 | 52.41333 | 8.70228 | 10126 ft | 317 kts | 208° |
| 2026-05-06 17:45 | 52.39449 | 8.68615 | 10025 ft | 296 kts | 208° |
| 2026-05-06 17:46 | 52.37652 | 8.67077 | 9993 ft | 295 kts | 208° |
| 2026-05-06 17:46 | 52.35772 | 8.65468 | 10093 ft | 313 kts | 208° |
| 2026-05-06 17:46 | 52.33790 | 8.63773 | 10280 ft | 330 kts | 208° |
| 2026-05-06 17:46 | 52.31739 | 8.62024 | 10770 ft | 333 kts | 208° |
| 2026-05-06 17:47 | 52.29683 | 8.60273 | 11425 ft | 335 kts | 209° |
| 2026-05-06 17:47 | 52.27678 | 8.58255 | 11560 ft | 340 kts | 217° |
| 2026-05-06 17:47 | 52.25883 | 8.55743 | 11406 ft | 340 kts | 225° |
| 2026-05-06 17:47 | 52.24296 | 8.52906 | 10964 ft | 335 kts | 229° |
| 2026-05-06 17:48 | 52.22773 | 8.50122 | 10513 ft | 324 kts | 228° |
| 2026-05-06 17:48 | 52.21288 | 8.47427 | 10047 ft | 314 kts | 228° |
| 2026-05-06 17:48 | 52.19843 | 8.44820 | 9569 ft | 305 kts | 227° |
| 2026-05-06 17:48 | 52.18434 | 8.42292 | 9062 ft | 297 kts | 227° |
| 2026-05-06 17:49 | 52.17061 | 8.39835 | 8562 ft | 289 kts | 227° |
| 2026-05-06 17:49 | 52.15716 | 8.37437 | 8071 ft | 284 kts | 229° |
| 2026-05-06 17:49 | 52.14394 | 8.35079 | 7584 ft | 280 kts | 229° |
| 2026-05-06 17:49 | 52.13086 | 8.32746 | 7251 ft | 276 kts | 228° |
| 2026-05-06 17:50 | 52.11819 | 8.30487 | 7143 ft | 265 kts | 228° |
| 2026-05-06 17:50 | 52.10605 | 8.28325 | 7044 ft | 253 kts | 228° |
| 2026-05-06 17:50 | 52.09445 | 8.26264 | 7006 ft | 239 kts | 228° |
| 2026-05-06 17:50 | 52.08329 | 8.24279 | 7011 ft | 240 kts | 228° |
| 2026-05-06 17:51 | 52.07217 | 8.22301 | 7010 ft | 235 kts | 229° |
| 2026-05-06 17:51 | 52.06115 | 8.20343 | 7007 ft | 235 kts | 229° |
| 2026-05-06 17:51 | 52.05005 | 8.18373 | 7007 ft | 235 kts | 228° |
| 2026-05-06 17:51 | 52.03918 | 8.16448 | 7027 ft | 228 kts | 228° |
| 2026-05-06 17:52 | 52.02869 | 8.14591 | 7005 ft | 219 kts | 228° |
| 2026-05-06 17:52 | 52.01833 | 8.12756 | 7007 ft | 222 kts | 228° |
| 2026-05-06 17:52 | 52.00778 | 8.10891 | 7006 ft | 225 kts | 228° |
| 2026-05-06 17:52 | 51.99737 | 8.09052 | 7001 ft | 213 kts | 229° |
| 2026-05-06 17:53 | 51.98770 | 8.07354 | 7006 ft | 202 kts | 230° |
| 2026-05-06 17:53 | 51.97793 | 8.05631 | 7004 ft | 210 kts | 230° |
| 2026-05-06 17:53 | 51.96852 | 8.03971 | 7002 ft | 195 kts | 229° |
| 2026-05-06 17:53 | 51.95948 | 8.02376 | 7015 ft | 194 kts | 230° |
| 2026-05-06 17:54 | 51.95038 | 8.00771 | 7013 ft | 187 kts | 229° |
| 2026-05-06 17:54 | 51.94179 | 7.99258 | 7015 ft | 186 kts | 230° |
| 2026-05-06 17:54 | 51.93273 | 7.97657 | 7012 ft | 193 kts | 229° |
| 2026-05-06 17:54 | 51.92365 | 7.96061 | 7013 ft | 194 kts | 230° |
| 2026-05-06 17:55 | 51.91444 | 7.94447 | 7015 ft | 194 kts | 229° |
| 2026-05-06 17:55 | 51.90532 | 7.92847 | 7011 ft | 194 kts | 230° |
| 2026-05-06 17:55 | 51.85773 | 7.83848 | 6102 ft | 188 kts | 235° |
| 2026-05-06 17:55 | 51.85048 | 7.82055 | 5915 ft | 191 kts | 237° |
| 2026-05-06 17:56 | 51.84123 | 7.80647 | 5858 ft | 175 kts | 216° |
| 2026-05-06 17:56 | 51.83136 | 7.79574 | 5963 ft | 174 kts | 220° |
| 2026-05-06 17:56 | 51.82294 | 7.78133 | 6035 ft | 179 kts | 231° |
| 2026-05-06 17:56 | 51.81462 | 7.76585 | 5561 ft | 183 kts | 230° |
| 2026-05-06 17:57 | 51.80640 | 7.75026 | 5136 ft | 183 kts | 231° |
| 2026-05-06 17:57 | 51.79823 | 7.73444 | 4690 ft | 183 kts | 232° |
| 2026-05-06 17:57 | 51.79052 | 7.71831 | 4245 ft | 183 kts | 234° |
| 2026-05-06 17:57 | 51.78281 | 7.70244 | 3898 ft | 176 kts | 233° |
| 2026-05-06 17:58 | 51.77558 | 7.68662 | 3527 ft | 174 kts | 237° |
| 2026-05-06 17:58 | 51.76896 | 7.67084 | 3260 ft | 166 kts | 238° |
| 2026-05-06 17:58 | 51.76270 | 7.65549 | 3040 ft | 164 kts | 234° |
| 2026-05-06 17:58 | 51.75577 | 7.64071 | 3163 ft | 168 kts | 237° |
| 2026-05-06 17:59 | 51.74884 | 7.62567 | 3106 ft | 162 kts | 227° |
| 2026-05-06 17:59 | 51.74091 | 7.61220 | 3069 ft | 168 kts | 231° |
| 2026-05-06 17:59 | 51.73418 | 7.59688 | 2906 ft | 164 kts | 239° |
| 2026-05-06 17:59 | 51.72845 | 7.58124 | 2843 ft | 164 kts | 239° |
| 2026-05-06 18:00 | 51.72219 | 7.56540 | 2648 ft | 166 kts | 238° |
| 2026-05-06 18:00 | 51.71476 | 7.55165 | 2575 ft | 164 kts | 209° |
| 2026-05-06 18:00 | 51.70407 | 7.54522 | 2555 ft | 164 kts | 191° |
| 2026-05-06 18:00 | 51.69294 | 7.54146 | 2352 ft | 163 kts | 188° |
| 2026-05-06 18:01 | 51.68229 | 7.53662 | 2215 ft | 151 kts | 205° |
| 2026-05-06 18:01 | 51.67367 | 7.52822 | 2122 ft | 142 kts | 212° |
| 2026-05-06 18:01 | 51.66483 | 7.51861 | 2298 ft | 161 kts | 217° |
| 2026-05-06 18:01 | 51.65568 | 7.50753 | 2496 ft | 167 kts | 212° |
| 2026-05-06 18:02 | 51.64551 | 7.49858 | 2626 ft | 165 kts | 203° |
| 2026-05-06 18:02 | 51.63507 | 7.49064 | 2619 ft | 169 kts | 207° |
| 2026-05-06 18:02 | 51.62833 | 7.48438 | 2471 ft | 168 kts | 212° |
| 2026-05-06 18:02 | 51.61544 | 7.47103 | 2299 ft | 164 kts | 211° |
| 2026-05-06 18:03 | 51.60518 | 7.46279 | 2248 ft | 165 kts | 199° |
| 2026-05-06 18:03 | 51.59426 | 7.45742 | 2368 ft | 166 kts | 194° |
| 2026-05-06 18:03 | 51.58713 | 7.45323 | 2454 ft | 165 kts | 205° |
| 2026-05-06 18:03 | 51.57678 | 7.44488 | 2517 ft | 166 kts | 202° |
| 2026-05-06 18:04 | 51.56578 | 7.43902 | 2470 ft | 167 kts | 191° |
| 2026-05-06 18:04 | 51.55435 | 7.43581 | 2316 ft | 168 kts | 195° |
| 2026-05-06 18:04 | 51.54396 | 7.42814 | 2087 ft | 164 kts | 212° |
| 2026-05-06 18:04 | 51.53510 | 7.41675 | 1962 ft | 164 kts | 224° |
| 2026-05-06 18:05 | 51.52691 | 7.40420 | 1966 ft | 161 kts | 226° |
| 2026-05-06 18:05 | 51.51802 | 7.39286 | 1960 ft | 166 kts | 215° |
| 2026-05-06 18:05 | 51.50776 | 7.38545 | 2020 ft | 164 kts | 190° |
| 2026-05-06 18:05 | 51.49643 | 7.38590 | 1943 ft | 161 kts | 159° |
| 2026-05-06 18:06 | 51.48655 | 7.39410 | 1805 ft | 160 kts | 145° |
| 2026-05-06 18:06 | 51.47804 | 7.40498 | 1726 ft | 154 kts | 129° |
| 2026-05-06 18:06 | 51.47192 | 7.41888 | 1738 ft | 153 kts | 112° |
| 2026-05-06 18:06 | 51.46847 | 7.43496 | 1760 ft | 153 kts | 98° |
| 2026-05-06 18:07 | 51.46843 | 7.45125 | 1889 ft | 141 kts | 71° |
| 2026-05-06 18:07 | 51.47220 | 7.46674 | 1866 ft | 158 kts | 63° |
| 2026-05-06 18:07 | 51.47670 | 7.48315 | 1644 ft | 161 kts | 64° |
| 2026-05-06 18:07 | 51.48055 | 7.49937 | 1457 ft | 146 kts | 66° |
| 2026-05-06 18:08 | 51.48441 | 7.51391 | 1149 ft | 136 kts | 60° |
| 2026-05-06 18:08 | 51.48818 | 7.52669 | 1033 ft | 120 kts | 60° |
| 2026-05-06 18:08 | 51.49205 | 7.53901 | 942 ft | 136 kts | 57° |
| 2026-05-06 18:08 | 51.49708 | 7.55287 | 1042 ft | 148 kts | 56° |
| 2026-05-06 18:09 | 51.50241 | 7.56736 | 924 ft | 151 kts | 57° |
| 2026-05-06 18:09 | 51.50741 | 7.58170 | 744 ft | 143 kts | 57° |
| 2026-05-06 18:09 | 51.51209 | 7.59463 | 602 ft | 128 kts | 56° |
| 2026-05-06 18:09 | 51.51628 | 7.60660 | 424 ft | 119 kts | 56° |
| 2026-05-06 18:10 | 51.51942 | 7.61554 | 414 ft | 47 kts | 69° |
| 2026-05-06 18:10 | 51.52079 | 7.61938 | 409 ft | 37 kts | 59° |
| 2026-05-06 18:10 | 51.52180 | 7.62250 | 408 ft | 21 kts | 81° |
| 2026-05-06 18:10 | 51.52113 | 7.62375 | 410 ft | 0 kts | 148° |
| 2026-05-06 18:13 | 51.52048 | 7.62366 | 407 ft | 13 kts | 230° |
| 2026-05-06 18:13 | 51.52001 | 7.62239 | 412 ft | 15 kts | 240° |
| 2026-05-06 18:14 | 51.51912 | 7.61985 | 410 ft | 29 kts | 240° |
| 2026-05-06 18:14 | 51.51871 | 7.61866 | 409 ft | 7 kts | 242° |
| 2026-05-06 18:14 | 51.51779 | 7.61613 | 418 ft | 25 kts | 239° |
| 2026-05-06 18:14 | 51.51700 | 7.61428 | 426 ft | 17 kts | 214° |
| 2026-05-06 18:15 | 51.51625 | 7.61415 | 424 ft | 0 kts | 154° |